Viroqua, WI (54665)

1:19 AM CDT on July 29, 2014 (GMT -0500)
Faith Farms Viroqua (KWIVIROQ3) Elev 1217 ft | 43.61 °N, 90.98 °W | Change Station

Current weather conditions updated 53 seconds ago

Clear
Clear
57.3 °F
Feels Like 57.3 °F
N
0.0
Wind Variable Wind from North
Gusts 0.0 mph

Today is forecast to be Warmer than yesterday. Slight chance of a thunderstorm.

Today
High -- | Low -- °F
--% Chance of Precip.
Yesterday
High -- | Low -- °F
Precip. -- in
5:49 AM 8:29 PM
Waxing Crescent, 5% visible
Pressure 30.12 in
Visibility 10.0 miles
Clouds Clear
Dew Point 54 °F
Humidity 88%
Rainfall 0.00 in
Snow Depth Not available.
UV 0 out of 12
Pollen 7.10 out of 12
Air Quality Not available.
Flu Activity Not available.
METAR KY51 290555Z AUTO 28003KT 10SM CLR 13/12 A3012 RMK AO1 T01330120 10201 20133 402230110

More Conditions Fewer Conditions

Pressure 30.12 in
Visibility 10.0 miles
Clouds Clear
Dew Point 54 °F
Humidity 88%
Rainfall 0.00 in
Snow Depth Not available.
UV 0 out of 12
Pollen 7.10 out of 12
Air Quality Not available.
Flu Activity Not available.
METAR KY51 290555Z AUTO 28003KT 10SM CLR 13/12 A3012 RMK AO1 T01330120 10201 20133 402230110

More Conditions Fewer Conditions

10-Day Weather Forecast

Almanac

Astronomy

Jul. 29, 2014 Rise Set
Actual Time 5:49 AM CDT 8:29 PM CDT
Civil Twilight 5:16 AM CDT 9:02 PM CDT
Nautical Twilight 4:35 AM CDT 9:43 PM CDT
Astronomical Twilight 3:47 AM CDT 10:30 PM CDT
Moon 8:32 AM CDT 9:34 PM CDT
Length of Visible Light 15h 45m
Length of Day
14h 39m
Tomorrow will be 2m 11s shorter.
Waxing Crescent, 5% of the Moon is Illuminated
Today
Waxing Crescent
Aug 3
First Quarter
Aug 10
Full
Aug 17
Last Quarter
Aug 25
New

Today's Extremes

State Highs State Lows

Community

WunderPhotos

Upload Photos

1,738,642 photos uploaded!

Nearby

Snow Depth

Station Depth Elevation
No new snow has been reported.

Earthquake Activity

City Distance Mag. Time & Date
No recent earthquake activity has been reported nearby.
Minimum magnitude displayed is 2.5.

Coastal Water Temperatures

Place Temperature
No Stations Reporting

Nearby Weather Stations

Station Location Temp. Dew Point Humidity Wind Precip. Elev Updated Type
Faith Farms Viroqua, Viroqua, WI 57.3 °F 54 °F 88% North  at  0.0 mph 0.00 in / hr 1217 ft 1:18 AM CDT Normal
De Soto Wisconsin, De Soto, WI 56.1 °F 55 °F 96% East  at  0.0 mph 0.00 in / hr 761 ft 1:18 AM CDT Rapid Fire
DeSoto WI, DeSoto, WI 61.2 °F 55 °F 80% West  at  0.0 mph 0.00 in / hr 778 ft 1:19 AM CDT Rapid Fire
APRSWXNET La Crosse WI , La Crosse, WI 63 °F 53 °F 70% WNW  at  3 mph 0.00 in / hr 1272 ft 11:00 PM CDT MADIS

Show More Stations Show Fewer Stations